Portada
METAR-TAF:

METAR-TAF

Aeroports :

Melbourne, Austràlia

latitud: 37-40-24S, longitud: 144-50-36E, altitud: 132 m

Observació

L'informe es va fer fa 40 minuts, a les 10:30 UTC
Vent 4 kt del Sud
Temperatura 12°C
Humitat 71%
Pressió 1027 hPa
Visibilitat 10 km o més
Escasses núvols a una alçada de 4000 ft

METAR: YMML 221030Z 18004KT 9999 FEW040 12/07 Q1027 NOSIG

Hora: 21:10 (11:10 UTC)

Pronòstic

L'informe es va fer fa 6 hores i 0 minuts, a les 05:10 UTC
Pronòstic vàlid del 22 a les 06 UTC al 23 a les 12 UTC
Vent 10 kt del Sud
Visibilitat 10 km o més
Cel ennuvolat a una alçada de 3500 ft
A partir de les 22 a les 1400 UTC
Vent 6 kt del Sud-Oest
Visibilitat 10 km o més
Cel ennuvolat a una alçada de 2000 ft
A partir de les 23 a les 0000 UTC
Vent 10 kt del Sud
Visibilitat 10 km o més
Núvols disperses a una alçada de 3000 ft

TAF: YMML 220510Z 2206/2312 17010KT 9999 BKN035 FM221400 22006KT 9999 BKN020 FM230000 18010KT 9999 SCT030

Observacions i pronòstics meteorològics de més de 4000 aeroports (METAR i TAF).

Les estacions disponibles són els punts grocs i vermells al mapa.

Posi el ratolí al punt desitjat per veure el nom de l'estació.

Feu clic per veure les observacions i els pronòstics meteorològics.

Per canviar el mapa: feu clic els botons verds amb una creu de color negre per apropar; al botó verd amb un guió per allunyar la imatge; o en les fletxes verdes per a mapes adjacents.


METAR-TAF: